Pine Ridge, Florida
Current Conditions -  °F | °C
As of 8:15 PM on Sunday 21 Dec 2014 (Local Time) from KCGC Reporting Station
Moderate Rain Moderate Rain  
Wind Chill: 64°   Ceiling: 7500
Heat Index: 64°   Visibility: 3mi
Dew Point: 63°   Wind: 3mph
Humidity: 94%   Direction: 80°E
Pressure: 30.04"   Gusts: NA
Location:  28.9342°N, 82.4936°W
Report Text: KCGC 220115Z AUTO 08003KT 3SM RA BKN075 BKN090 OVC110 18/17 A3004 RMK AO2 LTG DSNT NE AND SW P0003
Loading
Personal Weather Stations






























Interactive Weather Map New forecast layout! Learn more

10-Day Weather Forecast

Advertisements
Track Severe Weather on mobile